createdAt,value
2019-01-27T00:00:23.737Z,0.00
2019-01-27T00:01:23.738Z,0.00
2019-01-27T00:02:23.715Z,0.00
2019-01-27T00:03:23.715Z,0.00
2019-01-27T00:04:23.694Z,0.00
2019-01-27T00:05:23.683Z,0.00
2019-01-27T00:06:23.671Z,0.00
2019-01-27T00:07:23.660Z,0.00
2019-01-27T00:08:23.661Z,0.00
2019-01-27T00:09:23.640Z,0.00
2019-01-27T00:10:23.627Z,0.00
2019-01-27T00:11:23.617Z,0.00
2019-01-27T00:12:23.610Z,0.00
2019-01-27T00:13:23.610Z,0.00
2019-01-27T00:14:23.584Z,0.00
2019-01-27T00:15:23.573Z,0.00
2019-01-27T00:16:23.570Z,0.00
2019-01-27T00:17:23.551Z,0.00
2019-01-27T00:18:23.551Z,0.00
2019-01-27T00:19:23.530Z,0.00
2019-01-27T00:20:23.517Z,0.00
2019-01-27T00:21:23.509Z,0.00
2019-01-27T00:22:23.496Z,0.00
2019-01-27T00:23:23.497Z,0.00
2019-01-27T00:24:23.496Z,0.00
2019-01-27T00:25:23.463Z,0.00
2019-01-27T00:26:23.452Z,0.00
2019-01-27T00:27:23.441Z,0.00
2019-01-27T00:28:23.454Z,0.00
2019-01-27T00:29:23.421Z,0.00
2019-01-27T00:30:23.408Z,0.00
2019-01-27T00:31:23.397Z,0.00
2019-01-27T00:32:23.388Z,0.00
2019-01-27T00:33:23.375Z,0.00
2019-01-27T00:34:23.392Z,0.00
2019-01-27T00:35:23.354Z,0.00
2019-01-27T00:36:23.342Z,0.00
2019-01-27T00:37:23.332Z,0.00
2019-01-27T00:38:23.320Z,0.00
2019-01-27T00:39:23.321Z,0.00
2019-01-27T00:40:23.297Z,0.00
2019-01-27T00:41:23.287Z,0.00
2019-01-27T00:42:23.275Z,0.00
2019-01-27T00:43:23.265Z,0.00
2019-01-27T00:44:23.267Z,0.00
2019-01-27T00:45:23.243Z,0.00
2019-01-27T00:46:23.232Z,0.00
2019-01-27T00:47:23.243Z,0.00
2019-01-27T00:48:23.247Z,0.00
2019-01-27T00:49:23.230Z,0.00
2019-01-27T00:50:23.191Z,0.00
2019-01-27T00:51:23.177Z,0.00
2019-01-27T00:52:23.166Z,0.00
2019-01-27T00:53:23.159Z,0.00
2019-01-27T00:54:23.156Z,0.00
2019-01-27T00:55:23.135Z,0.00
2019-01-27T00:56:23.124Z,0.00
2019-01-27T00:57:23.111Z,0.00
2019-01-27T00:58:23.101Z,0.00
2019-01-27T00:59:23.101Z,0.00
2019-01-27T01:00:23.080Z,0.00
2019-01-27T01:01:23.080Z,0.00
2019-01-27T01:02:23.059Z,0.00
2019-01-27T01:03:23.045Z,0.00
2019-01-27T01:04:23.047Z,0.00
2019-01-27T01:05:23.024Z,0.00
2019-01-27T01:06:23.013Z,0.00
2019-01-27T01:07:23.004Z,0.00
2019-01-27T01:08:22.992Z,0.00
2019-01-27T01:09:22.991Z,0.00
2019-01-27T01:10:22.985Z,0.00
2019-01-27T01:11:22.957Z,0.00
2019-01-27T01:12:22.947Z,0.00
2019-01-27T01:13:22.941Z,0.00
2019-01-27T01:14:22.935Z,0.00
2019-01-27T01:15:22.914Z,0.00
2019-01-27T01:16:22.903Z,0.00
2019-01-27T01:17:22.892Z,0.00
2019-01-27T01:18:22.885Z,0.00
2019-01-27T01:19:22.880Z,0.00
2019-01-27T01:20:22.881Z,0.00
2019-01-27T01:21:22.848Z,0.00
2019-01-27T01:22:22.837Z,0.00
2019-01-27T01:23:22.826Z,0.00
2019-01-27T01:24:22.847Z,0.00
2019-01-27T01:25:22.805Z,0.00
2019-01-27T01:26:22.794Z,0.00
2019-01-27T01:27:22.782Z,0.00
2019-01-27T01:28:22.770Z,0.00
2019-01-27T01:29:22.763Z,0.00
2019-01-27T01:30:22.762Z,0.00
2019-01-27T01:31:22.758Z,0.00
2019-01-27T01:32:22.727Z,0.00
2019-01-27T01:33:22.727Z,0.00
2019-01-27T01:34:22.705Z,0.00
2019-01-27T01:35:22.706Z,0.00
2019-01-27T01:36:22.684Z,0.00
2019-01-27T01:37:22.675Z,0.00
2019-01-27T01:38:22.662Z,0.00
2019-01-27T01:39:22.650Z,0.00
2019-01-27T01:40:22.651Z,0.00
2019-01-27T01:41:22.629Z,0.00
2019-01-27T01:42:22.617Z,0.00
2019-01-27T01:43:22.625Z,0.00
2019-01-27T01:44:22.596Z,0.00
2019-01-27T01:45:22.598Z,0.00
2019-01-27T01:46:22.573Z,0.00
2019-01-27T01:47:22.563Z,0.00
2019-01-27T01:48:22.552Z,0.00
2019-01-27T01:49:22.540Z,0.00
2019-01-27T01:50:22.540Z,0.00
2019-01-27T01:51:22.520Z,0.00
2019-01-27T01:52:22.507Z,0.00
2019-01-27T01:53:22.497Z,0.00
2019-01-27T01:54:22.487Z,0.00
2019-01-27T01:55:22.487Z,0.00
2019-01-27T01:56:22.472Z,0.00
2019-01-27T01:57:22.452Z,0.00
2019-01-27T01:58:22.443Z,0.00
2019-01-27T01:59:22.432Z,0.00
2019-01-27T02:00:22.432Z,0.00
2019-01-27T02:01:22.414Z,0.00
2019-01-27T02:02:22.398Z,0.00
2019-01-27T02:03:22.388Z,0.00
2019-01-27T02:04:22.376Z,0.00
2019-01-27T02:05:22.379Z,0.00
2019-01-27T02:06:22.375Z,0.00
2019-01-27T02:07:22.342Z,0.00
2019-01-27T02:08:22.333Z,0.00
2019-01-27T02:09:22.322Z,0.00
2019-01-27T02:10:22.321Z,0.00
2019-01-27T02:11:22.299Z,0.00
2019-01-27T02:12:22.291Z,0.00
2019-01-27T02:13:22.279Z,0.00
2019-01-27T02:14:22.265Z,0.00
2019-01-27T02:15:22.287Z,0.00
2019-01-27T02:16:22.244Z,0.00
2019-01-27T02:17:22.234Z,0.00
2019-01-27T02:18:22.223Z,0.00
2019-01-27T02:19:22.210Z,0.00
2019-01-27T02:20:22.200Z,0.00
2019-01-27T02:21:22.202Z,0.00
2019-01-27T02:22:22.178Z,0.00
2019-01-27T02:23:22.290Z,0.00
2019-01-27T02:24:22.156Z,0.00
2019-01-27T02:25:22.147Z,0.00
2019-01-27T02:26:22.147Z,0.00
2019-01-27T02:27:22.122Z,0.00
2019-01-27T02:28:22.112Z,0.00
2019-01-27T02:29:22.127Z,0.00
2019-01-27T02:30:22.091Z,0.00
2019-01-27T02:31:22.096Z,0.00
2019-01-27T02:32:22.068Z,0.00
2019-01-27T02:33:22.058Z,0.00
2019-01-27T02:34:22.046Z,0.00
2019-01-27T02:35:22.046Z,0.00
2019-01-27T02:36:22.036Z,0.00
2019-01-27T02:37:22.014Z,0.00
2019-01-27T02:38:22.001Z,0.00
2019-01-27T02:39:22.018Z,0.00
2019-01-27T02:40:22.006Z,0.00
2019-01-27T02:41:21.983Z,0.00
2019-01-27T02:42:21.959Z,0.00
2019-01-27T02:43:21.950Z,0.00
2019-01-27T02:44:21.936Z,0.00
2019-01-27T02:45:21.932Z,0.00
2019-01-27T02:46:21.934Z,0.00
2019-01-27T02:47:21.906Z,0.00
2019-01-27T02:48:21.895Z,0.00
2019-01-27T02:49:21.884Z,0.00
2019-01-27T02:50:21.874Z,0.00
2019-01-27T02:51:21.872Z,0.00
2019-01-27T02:52:21.873Z,0.00
2019-01-27T02:53:21.847Z,0.00
2019-01-27T02:54:21.827Z,0.00
2019-01-27T02:55:21.817Z,0.00
2019-01-27T02:56:21.818Z,0.00
2019-01-27T02:57:21.794Z,0.00
2019-01-27T02:58:21.784Z,0.00
2019-01-27T02:59:21.773Z,0.00
2019-01-27T03:00:21.762Z,0.00
2019-01-27T03:01:21.761Z,0.00
2019-01-27T03:02:21.742Z,0.00
2019-01-27T03:03:21.733Z,0.00
2019-01-27T03:04:21.718Z,0.00
2019-01-27T03:05:21.706Z,0.00
2019-01-27T03:06:21.706Z,0.00
2019-01-27T03:07:21.685Z,0.00
2019-01-27T03:08:21.673Z,0.00
2019-01-27T03:09:21.662Z,0.00
2019-01-27T03:10:21.655Z,0.00
2019-01-27T03:11:21.653Z,0.00
2019-01-27T03:12:21.630Z,0.00
2019-01-27T03:13:21.619Z,0.00
2019-01-27T03:14:21.611Z,0.00
2019-01-27T03:15:21.612Z,0.00
2019-01-27T03:16:21.596Z,0.00
2019-01-27T03:17:21.578Z,0.00
2019-01-27T03:18:21.563Z,0.00
2019-01-27T03:19:21.560Z,0.00
2019-01-27T03:20:21.541Z,0.00
2019-01-27T03:21:21.545Z,0.00
2019-01-27T03:22:21.529Z,0.00
2019-01-27T03:23:21.515Z,0.00
2019-01-27T03:24:21.515Z,0.00
2019-01-27T03:25:28.513Z,0.00
2019-01-27T03:26:21.581Z,0.00
2019-01-27T03:27:28.474Z,0.00
2019-01-27T03:28:28.464Z,0.00
2019-01-27T03:29:21.442Z,0.00
2019-01-27T03:30:21.432Z,0.00
2019-01-27T03:31:21.453Z,0.00
2019-01-27T03:32:21.410Z,0.00
2019-01-27T03:33:21.414Z,0.00
2019-01-27T03:34:21.395Z,0.00
2019-01-27T03:35:21.377Z,0.00
2019-01-27T03:36:21.366Z,0.00
2019-01-27T03:37:21.365Z,0.00
2019-01-27T03:38:21.353Z,0.00
2019-01-27T03:39:21.331Z,0.00
2019-01-27T03:40:21.328Z,0.00
2019-01-27T03:41:21.313Z,0.00
2019-01-27T03:42:21.312Z,0.00
2019-01-27T03:43:21.290Z,0.00
2019-01-27T03:44:21.278Z,0.00
2019-01-27T03:45:21.269Z,0.00
2019-01-27T03:46:21.256Z,0.00
2019-01-27T03:47:21.262Z,0.00
2019-01-27T03:48:21.254Z,0.00
2019-01-27T03:49:21.228Z,0.00
2019-01-27T03:50:21.212Z,0.00
2019-01-27T03:51:21.201Z,0.00
2019-01-27T03:52:21.204Z,0.00
2019-01-27T03:53:21.184Z,0.00
2019-01-27T03:54:21.168Z,0.00
2019-01-27T03:55:21.157Z,0.00
2019-01-27T03:56:21.148Z,0.00
2019-01-27T03:57:21.151Z,0.00
2019-01-27T03:58:21.124Z,0.00
2019-01-27T03:59:21.115Z,0.00
2019-01-27T04:00:21.101Z,0.00
2019-01-27T04:01:21.098Z,0.00
2019-01-27T04:02:21.092Z,0.00
2019-01-27T04:03:21.071Z,0.00
2019-01-27T04:04:21.060Z,0.00
2019-01-27T04:05:21.051Z,0.00
2019-01-27T04:06:21.043Z,0.00
2019-01-27T04:07:21.038Z,0.00
2019-01-27T04:08:21.015Z,0.00
2019-01-27T04:09:21.006Z,0.00
2019-01-27T04:10:21.006Z,0.00
2019-01-27T04:11:21.012Z,0.00
2019-01-27T04:12:21.004Z,0.00
2019-01-27T04:13:20.969Z,0.00
2019-01-27T04:14:20.947Z,0.00
2019-01-27T04:15:20.939Z,0.00
2019-01-27T04:16:20.928Z,0.00
2019-01-27T04:17:20.924Z,0.00
2019-01-27T04:18:20.915Z,0.00
2019-01-27T04:19:20.892Z,0.00
2019-01-27T04:20:20.891Z,0.00
2019-01-27T04:21:20.870Z,0.00
2019-01-27T04:22:20.860Z,0.00
2019-01-27T04:23:20.864Z,0.00
2019-01-27T04:24:20.847Z,0.00
2019-01-27T04:25:20.825Z,0.00
2019-01-27T04:26:20.814Z,0.00
2019-01-27T04:27:20.806Z,0.00
2019-01-27T04:28:20.805Z,0.00
2019-01-27T04:29:20.783Z,0.00
2019-01-27T04:30:20.771Z,0.00
2019-01-27T04:31:20.761Z,0.00
2019-01-27T04:32:20.749Z,0.00
2019-01-27T04:33:20.754Z,0.00
2019-01-27T04:34:20.749Z,0.00
2019-01-27T04:35:20.716Z,0.00
2019-01-27T04:36:20.707Z,0.00
2019-01-27T04:37:20.695Z,0.00
2019-01-27T04:38:20.698Z,0.00
2019-01-27T04:39:20.673Z,0.00
2019-01-27T04:40:20.661Z,0.00
2019-01-27T04:41:20.652Z,0.00
2019-01-27T04:42:20.639Z,0.00
2019-01-27T04:43:20.641Z,0.00
2019-01-27T04:44:20.620Z,0.00
2019-01-27T04:45:20.609Z,0.00
2019-01-27T04:46:20.596Z,0.00
2019-01-27T04:47:20.589Z,0.00
2019-01-27T04:48:20.585Z,0.00
2019-01-27T04:49:20.561Z,0.00
2019-01-27T04:50:20.553Z,0.00
2019-01-27T04:51:20.539Z,0.00
2019-01-27T04:52:20.530Z,0.00
2019-01-27T04:53:20.530Z,0.00
2019-01-27T04:54:20.514Z,0.00
2019-01-27T04:55:20.498Z,0.00
2019-01-27T04:56:20.490Z,0.00
2019-01-27T04:57:20.491Z,0.00
2019-01-27T04:58:20.475Z,0.00
2019-01-27T04:59:20.454Z,0.00
2019-01-27T05:00:20.441Z,0.00
2019-01-27T05:01:20.432Z,0.00
2019-01-27T05:02:20.420Z,0.00
2019-01-27T05:03:20.419Z,0.00
2019-01-27T05:04:20.397Z,0.00
2019-01-27T05:05:20.388Z,0.00
2019-01-27T05:06:20.377Z,0.00
2019-01-27T05:07:20.364Z,0.00
2019-01-27T05:08:20.365Z,0.00
2019-01-27T05:09:20.365Z,0.00
2019-01-27T05:10:20.357Z,0.00
2019-01-27T05:11:20.324Z,0.00
2019-01-27T05:12:20.314Z,0.00
2019-01-27T05:13:20.485Z,0.00
2019-01-27T05:14:20.288Z,0.00
2019-01-27T05:15:20.291Z,0.00
2019-01-27T05:16:20.265Z,0.00
2019-01-27T05:17:20.254Z,0.00
2019-01-27T05:18:20.245Z,0.00
2019-01-27T05:19:20.252Z,0.00
2019-01-27T05:20:20.232Z,0.00
2019-01-27T05:21:20.210Z,0.00
2019-01-27T05:22:20.206Z,0.00
2019-01-27T05:23:20.211Z,0.00
2019-01-27T05:24:20.195Z,0.00
2019-01-27T05:25:20.172Z,0.00
2019-01-27T05:26:20.160Z,0.00
2019-01-27T05:27:20.159Z,0.00
2019-01-27T05:28:20.136Z,0.00
2019-01-27T05:29:20.143Z,0.00
2019-01-27T05:30:20.113Z,0.00
2019-01-27T05:31:20.103Z,0.00
2019-01-27T05:32:20.091Z,0.00
2019-01-27T05:33:20.084Z,0.00
2019-01-27T05:34:20.082Z,0.00
2019-01-27T05:35:20.063Z,0.00
2019-01-27T05:36:20.047Z,0.00
2019-01-27T05:37:20.035Z,0.00
2019-01-27T05:38:20.023Z,0.00
2019-01-27T05:39:20.024Z,0.00
2019-01-27T05:40:20.003Z,0.00
2019-01-27T05:41:19.992Z,0.00
2019-01-27T05:42:19.980Z,0.00
2019-01-27T05:43:19.992Z,0.00
2019-01-27T05:44:19.973Z,0.00
2019-01-27T05:45:19.946Z,0.00
2019-01-27T05:46:19.936Z,0.00
2019-01-27T05:47:19.926Z,0.00
2019-01-27T05:48:19.914Z,0.00
2019-01-27T05:49:19.934Z,0.00
2019-01-27T05:50:19.899Z,0.00
2019-01-27T05:51:19.880Z,0.00
2019-01-27T05:52:19.891Z,0.00
2019-01-27T05:53:19.862Z,0.00
2019-01-27T05:54:20.219Z,0.00
2019-01-27T05:55:19.841Z,0.00
2019-01-27T05:56:19.830Z,0.00
2019-01-27T05:57:19.815Z,0.00
2019-01-27T05:58:19.804Z,0.00
2019-01-27T05:59:19.807Z,0.00
2019-01-27T06:00:19.782Z,0.00
2019-01-27T06:01:19.771Z,0.00
2019-01-27T06:02:19.760Z,0.00
2019-01-27T06:03:19.749Z,0.00
2019-01-27T06:04:19.749Z,0.00
2019-01-27T06:05:19.727Z,0.00
2019-01-27T06:06:19.731Z,0.00
2019-01-27T06:07:19.705Z,0.00
2019-01-27T06:08:19.695Z,0.00
2019-01-27T06:09:19.698Z,0.00
2019-01-27T06:10:19.673Z,0.00
2019-01-27T06:11:19.660Z,0.00
2019-01-27T06:12:19.650Z,0.00
2019-01-27T06:13:19.642Z,0.00
2019-01-27T06:14:19.641Z,0.00
2019-01-27T06:15:19.621Z,0.00
2019-01-27T06:16:19.607Z,0.00
2019-01-27T06:17:19.597Z,0.00
2019-01-27T06:18:19.584Z,0.00
2019-01-27T06:19:19.590Z,0.00
2019-01-27T06:20:19.572Z,0.00
2019-01-27T06:21:19.551Z,0.00
2019-01-27T06:22:19.540Z,0.00
2019-01-27T06:23:19.530Z,0.00
2019-01-27T06:24:19.531Z,0.00
2019-01-27T06:25:19.536Z,0.00
2019-01-27T06:26:19.497Z,0.00
2019-01-27T06:27:19.485Z,0.00
2019-01-27T06:28:19.477Z,0.00
2019-01-27T06:29:19.495Z,0.00
2019-01-27T06:30:19.454Z,0.00
2019-01-27T06:31:19.444Z,0.00
2019-01-27T06:32:19.429Z,0.00
2019-01-27T06:33:19.419Z,0.00
2019-01-27T06:34:19.429Z,0.00
2019-01-27T06:35:19.397Z,0.00
2019-01-27T06:36:19.391Z,0.00
2019-01-27T06:37:24.671Z,0.00
2019-01-27T06:38:20.364Z,0.00
2019-01-27T06:39:19.395Z,0.00
2019-01-27T06:40:19.343Z,0.00
2019-01-27T06:41:19.334Z,0.00
2019-01-27T06:42:19.321Z,0.00
2019-01-27T06:43:19.313Z,0.00
2019-01-27T06:44:19.302Z,0.00
2019-01-27T06:45:19.301Z,0.00
2019-01-27T06:46:19.275Z,0.00
2019-01-27T06:47:19.267Z,0.00
2019-01-27T06:48:19.254Z,0.00
2019-01-27T06:49:19.244Z,0.00
2019-01-27T06:50:19.247Z,0.00
2019-01-27T06:51:19.222Z,0.00
2019-01-27T06:52:19.232Z,0.00
2019-01-27T06:53:19.199Z,0.00
2019-01-27T06:54:19.193Z,0.00
2019-01-27T06:55:19.188Z,0.00
2019-01-27T06:56:19.166Z,0.00
2019-01-27T06:57:19.156Z,0.00
2019-01-27T06:58:19.145Z,0.00
2019-01-27T06:59:19.134Z,0.00
2019-01-27T07:00:19.132Z,0.00
2019-01-27T07:01:19.110Z,0.00
2019-01-27T07:02:19.101Z,0.00
2019-01-27T07:03:19.090Z,0.00
2019-01-27T07:04:19.081Z,0.00
2019-01-27T07:05:19.078Z,0.00
2019-01-27T07:06:19.056Z,0.00
2019-01-27T07:07:19.045Z,0.00
2019-01-27T07:08:19.033Z,0.00
2019-01-27T07:09:26.034Z,0.00
2019-01-27T07:10:19.024Z,0.00
2019-01-27T07:11:26.030Z,0.00
2019-01-27T07:12:18.990Z,0.00
2019-01-27T07:13:18.980Z,0.00
2019-01-27T07:14:18.969Z,0.00
2019-01-27T07:15:18.976Z,0.00
2019-01-27T07:16:18.947Z,0.00
2019-01-27T07:17:18.935Z,0.00
2019-01-27T07:18:18.924Z,0.00
2019-01-27T07:19:18.914Z,4.00
2019-01-27T07:20:18.913Z,4.00
2019-01-27T07:21:18.894Z,4.00
2019-01-27T07:22:18.880Z,0.00
2019-01-27T07:23:18.892Z,4.00
2019-01-27T07:24:18.859Z,4.00
2019-01-27T07:25:18.880Z,4.00
2019-01-27T07:26:18.837Z,4.00
2019-01-27T07:27:18.827Z,4.00
2019-01-27T07:28:18.819Z,4.00
2019-01-27T07:29:18.803Z,4.00
2019-01-27T07:30:18.804Z,4.00
2019-01-27T07:31:18.782Z,4.00
2019-01-27T07:32:18.770Z,4.00
2019-01-27T07:33:18.760Z,4.00
2019-01-27T07:34:18.759Z,4.00
2019-01-27T07:35:18.750Z,0.00
2019-01-27T07:36:18.961Z,4.00
2019-01-27T07:37:18.718Z,4.00
2019-01-27T07:38:18.707Z,4.00
2019-01-27T07:39:18.694Z,4.00
2019-01-27T07:40:18.695Z,4.00
2019-01-27T07:41:18.672Z,4.00
2019-01-27T07:42:18.660Z,4.00
2019-01-27T07:43:18.650Z,4.00
2019-01-27T07:44:18.640Z,4.00
2019-01-27T07:45:18.762Z,0.00
2019-01-27T07:46:18.651Z,4.00
2019-01-27T07:47:18.606Z,4.00
2019-01-27T07:48:18.599Z,4.00
2019-01-27T07:49:18.585Z,4.00
2019-01-27T07:50:18.573Z,4.00
2019-01-27T07:51:18.574Z,4.00
2019-01-27T07:52:18.551Z,4.00
2019-01-27T07:53:18.542Z,4.00
2019-01-27T07:54:18.531Z,4.00
2019-01-27T07:55:18.524Z,0.00
2019-01-27T07:56:18.518Z,4.00
2019-01-27T07:57:18.509Z,4.00
2019-01-27T07:58:18.484Z,4.00
2019-01-27T07:59:18.475Z,0.00
2019-01-27T08:00:18.467Z,0.00
2019-01-27T08:01:18.481Z,4.00
2019-01-27T08:02:18.441Z,4.00
2019-01-27T08:03:18.437Z,4.00
2019-01-27T08:04:18.421Z,4.00
2019-01-27T08:05:18.410Z,4.00
2019-01-27T08:06:18.426Z,8.00
2019-01-27T08:07:18.387Z,8.00
2019-01-27T08:08:18.379Z,8.00
2019-01-27T08:09:18.374Z,12.00
2019-01-27T08:10:18.354Z,16.00
2019-01-27T08:11:18.367Z,16.00
2019-01-27T08:12:18.333Z,16.00
2019-01-27T08:13:18.319Z,16.00
2019-01-27T08:14:18.311Z,12.00
2019-01-27T08:15:18.298Z,16.00
2019-01-27T08:16:18.299Z,16.00
2019-01-27T08:17:18.277Z,12.00
2019-01-27T08:18:18.266Z,12.00
2019-01-27T08:19:18.259Z,12.00
2019-01-27T08:20:18.243Z,8.00
2019-01-27T08:21:18.245Z,12.00
2019-01-27T08:22:18.221Z,8.00
2019-01-27T08:23:18.211Z,12.00
2019-01-27T08:24:18.206Z,8.00
2019-01-27T08:25:18.193Z,12.00
2019-01-27T08:26:18.203Z,12.00
2019-01-27T08:27:18.168Z,12.00
2019-01-27T08:28:18.156Z,12.00
2019-01-27T08:29:18.146Z,12.00
2019-01-27T08:30:18.136Z,12.00
2019-01-27T08:31:18.152Z,12.00
2019-01-27T08:32:18.111Z,16.00
2019-01-27T08:33:18.102Z,12.00
2019-01-27T08:34:18.112Z,12.00
2019-01-27T08:35:18.078Z,12.00
2019-01-27T08:36:18.085Z,12.00
2019-01-27T08:37:18.057Z,12.00
2019-01-27T08:38:18.045Z,8.00
2019-01-27T08:39:18.054Z,12.00
2019-01-27T08:40:18.023Z,8.00
2019-01-27T08:41:18.024Z,8.00
2019-01-27T08:42:18.001Z,8.00
2019-01-27T08:43:17.999Z,12.00
2019-01-27T08:44:17.979Z,8.00
2019-01-27T08:45:17.969Z,12.00
2019-01-27T08:46:17.970Z,12.00
2019-01-27T08:47:17.948Z,12.00
2019-01-27T08:48:17.936Z,16.00
2019-01-27T08:49:17.926Z,16.00
2019-01-27T08:50:17.913Z,16.00
2019-01-27T08:51:17.963Z,16.00
2019-01-27T08:52:17.891Z,16.00
2019-01-27T08:53:17.882Z,16.00
2019-01-27T08:54:17.869Z,12.00
2019-01-27T08:55:17.865Z,16.00
2019-01-27T08:56:17.890Z,12.00
2019-01-27T08:57:17.858Z,12.00
2019-01-27T08:58:17.828Z,12.00
2019-01-27T08:59:17.814Z,12.00
2019-01-27T09:00:17.809Z,12.00
2019-01-27T09:01:17.793Z,16.00
2019-01-27T09:02:17.795Z,16.00
2019-01-27T09:03:17.771Z,12.00
2019-01-27T09:04:17.766Z,16.00
2019-01-27T09:05:17.748Z,16.00
2019-01-27T09:06:17.741Z,16.00
2019-01-27T09:07:17.743Z,16.00
2019-01-27T09:08:17.735Z,20.00
2019-01-27T09:09:17.711Z,20.00
2019-01-27T09:10:17.699Z,24.00
2019-01-27T09:11:17.689Z,24.00
2019-01-27T09:12:17.683Z,24.00
2019-01-27T09:13:17.661Z,20.00
2019-01-27T09:14:17.650Z,20.00
2019-01-27T09:15:17.639Z,20.00
2019-01-27T09:16:17.629Z,24.00
2019-01-27T09:17:17.629Z,24.00
2019-01-27T09:18:17.605Z,24.00
2019-01-27T09:19:17.601Z,20.00
2019-01-27T09:20:17.606Z,20.00
2019-01-27T09:21:17.573Z,24.00
2019-01-27T09:22:17.627Z,20.00
2019-01-27T09:23:17.564Z,20.00
2019-01-27T09:24:17.566Z,20.00
2019-01-27T09:25:17.530Z,24.00
2019-01-27T09:26:17.519Z,28.00
2019-01-27T09:27:18.372Z,28.00
2019-01-27T09:28:17.504Z,32.00
2019-01-27T09:29:17.488Z,32.00
2019-01-27T09:30:17.477Z,36.00
2019-01-27T09:31:17.464Z,40.00
2019-01-27T09:32:17.464Z,36.00
2019-01-27T09:33:17.467Z,32.00
2019-01-27T09:34:17.430Z,32.00
2019-01-27T09:35:17.420Z,28.00
2019-01-27T09:36:17.416Z,28.00
2019-01-27T09:37:17.448Z,28.00
2019-01-27T09:38:17.387Z,28.00
2019-01-27T09:39:17.377Z,28.00
2019-01-27T09:40:17.363Z,32.00
2019-01-27T09:41:17.359Z,36.00
2019-01-27T09:42:17.368Z,40.00
2019-01-27T09:43:17.349Z,40.00
2019-01-27T09:44:17.339Z,44.00
2019-01-27T09:45:17.311Z,40.00
2019-01-27T09:46:17.301Z,48.00
2019-01-27T09:47:17.302Z,48.00
2019-01-27T09:48:17.277Z,48.00
2019-01-27T09:49:17.266Z,48.00
2019-01-27T09:50:17.257Z,48.00
2019-01-27T09:51:17.259Z,48.00
2019-01-27T09:52:17.243Z,48.00
2019-01-27T09:53:17.309Z,48.00
2019-01-27T09:54:17.214Z,44.00
2019-01-27T09:55:17.199Z,44.00
2019-01-27T09:56:17.195Z,44.00
2019-01-27T09:57:17.203Z,44.00
2019-01-27T09:58:17.167Z,44.00
2019-01-27T09:59:17.156Z,48.00
2019-01-27T10:00:17.154Z,48.00
2019-01-27T10:01:17.133Z,48.00
2019-01-27T10:02:17.124Z,48.00
2019-01-27T10:03:17.125Z,48.00
2019-01-27T10:04:17.101Z,48.00
2019-01-27T10:05:17.088Z,48.00
2019-01-27T10:06:17.090Z,52.00
2019-01-27T10:07:17.067Z,48.00
2019-01-27T10:08:17.069Z,48.00
2019-01-27T10:09:17.048Z,48.00
2019-01-27T10:10:17.034Z,48.00
2019-01-27T10:11:17.029Z,44.00
2019-01-27T10:12:17.015Z,44.00
2019-01-27T10:13:17.019Z,40.00
2019-01-27T10:14:16.994Z,40.00
2019-01-27T10:15:18.350Z,36.00
2019-01-27T10:16:16.973Z,36.00
2019-01-27T10:17:16.959Z,32.00
2019-01-27T10:18:17.069Z,32.00
2019-01-27T10:19:16.939Z,32.00
2019-01-27T10:20:16.924Z,28.00
2019-01-27T10:21:16.914Z,28.00
2019-01-27T10:22:16.903Z,24.00
2019-01-27T10:23:16.903Z,28.00
2019-01-27T10:24:16.880Z,28.00
2019-01-27T10:25:16.872Z,28.00
2019-01-27T10:26:16.872Z,36.00
2019-01-27T10:27:16.848Z,40.00
2019-01-27T10:28:16.848Z,48.00
2019-01-27T10:29:16.829Z,52.00
2019-01-27T10:30:16.816Z,52.00
2019-01-27T10:31:16.810Z,52.00
2019-01-27T10:32:16.794Z,52.00
2019-01-27T10:33:16.835Z,48.00
2019-01-27T10:34:16.770Z,44.00
2019-01-27T10:35:16.768Z,48.00
2019-01-27T10:36:16.750Z,48.00
2019-01-27T10:37:16.739Z,52.00
2019-01-27T10:38:16.739Z,52.00
2019-01-27T10:39:16.749Z,60.00
2019-01-27T10:40:17.175Z,60.00
2019-01-27T10:41:16.694Z,60.00
2019-01-27T10:42:16.688Z,64.00
2019-01-27T10:43:16.671Z,56.00
2019-01-27T10:44:16.673Z,56.00
2019-01-27T10:45:16.650Z,52.00
2019-01-27T10:46:16.641Z,52.00
2019-01-27T10:47:16.629Z,52.00
2019-01-27T10:48:16.616Z,48.00
2019-01-27T10:49:25.425Z,44.00
2019-01-27T10:50:16.595Z,40.00
2019-01-27T10:51:23.597Z,36.00
2019-01-27T10:52:16.593Z,32.00
2019-01-27T10:53:20.932Z,36.00
2019-01-27T10:54:16.563Z,32.00
2019-01-27T10:55:16.541Z,32.00
2019-01-27T10:56:16.529Z,32.00
2019-01-27T10:57:16.522Z,36.00
2019-01-27T10:58:16.521Z,36.00
2019-01-27T10:59:16.507Z,36.00
2019-01-27T11:00:16.488Z,40.00
2019-01-27T11:01:16.473Z,36.00
2019-01-27T11:02:16.494Z,40.00
2019-01-27T11:03:16.453Z,40.00
2019-01-27T11:04:16.451Z,40.00
2019-01-27T11:05:16.441Z,40.00
2019-01-27T11:06:16.418Z,44.00
2019-01-27T11:07:16.408Z,112.00
2019-01-27T11:08:16.397Z,240.00
2019-01-27T11:09:16.398Z,212.00
2019-01-27T11:10:16.376Z,220.00
2019-01-27T11:11:16.364Z,216.00
2019-01-27T11:12:16.361Z,212.00
2019-01-27T11:13:16.426Z,208.00
2019-01-27T11:14:16.345Z,204.00
2019-01-27T11:15:16.361Z,200.00
2019-01-27T11:16:16.327Z,204.00
2019-01-27T11:17:16.298Z,204.00
2019-01-27T11:18:16.289Z,204.00
2019-01-27T11:19:16.288Z,200.00
2019-01-27T11:20:16.265Z,200.00
2019-01-27T11:21:16.253Z,200.00
2019-01-27T11:22:16.243Z,204.00
2019-01-27T11:23:16.232Z,204.00
2019-01-27T11:24:16.252Z,200.00
2019-01-27T11:25:16.231Z,204.00
2019-01-27T11:26:16.200Z,200.00
2019-01-27T11:27:16.192Z,204.00
2019-01-27T11:28:16.177Z,196.00
2019-01-27T11:29:16.211Z,200.00
2019-01-27T11:30:16.156Z,196.00
2019-01-27T11:31:16.148Z,192.00
2019-01-27T11:32:16.136Z,192.00
2019-01-27T11:33:16.123Z,192.00
2019-01-27T11:34:16.112Z,196.00
2019-01-27T11:35:16.111Z,192.00
2019-01-27T11:36:16.092Z,192.00
2019-01-27T11:37:16.080Z,188.00
2019-01-27T11:38:16.086Z,196.00
2019-01-27T11:39:16.057Z,192.00
2019-01-27T11:40:16.059Z,188.00
2019-01-27T11:41:16.040Z,188.00
2019-01-27T11:42:16.022Z,192.00
2019-01-27T11:43:16.046Z,188.00
2019-01-27T11:44:16.006Z,188.00
2019-01-27T11:45:16.004Z,192.00
2019-01-27T11:46:15.983Z,192.00
2019-01-27T11:47:15.985Z,188.00
2019-01-27T11:48:15.981Z,188.00
2019-01-27T11:49:15.949Z,188.00
2019-01-27T11:50:15.949Z,188.00
2019-01-27T11:51:15.927Z,188.00
2019-01-27T11:52:15.914Z,192.00
2019-01-27T11:53:15.915Z,192.00
2019-01-27T11:54:15.958Z,188.00
2019-01-27T11:55:15.912Z,188.00
2019-01-27T11:56:15.870Z,192.00
2019-01-27T11:57:15.858Z,188.00
2019-01-27T11:58:15.847Z,192.00
2019-01-27T11:59:15.856Z,192.00
2019-01-27T12:00:15.848Z,192.00
2019-01-27T12:01:15.822Z,188.00
2019-01-27T12:02:15.805Z,192.00
2019-01-27T12:03:15.794Z,192.00
2019-01-27T12:04:15.800Z,192.00
2019-01-27T12:05:15.786Z,192.00
2019-01-27T12:06:15.909Z,188.00
2019-01-27T12:07:15.749Z,192.00
2019-01-27T12:08:15.743Z,192.00
2019-01-27T12:09:15.729Z,192.00
2019-01-27T12:10:15.732Z,188.00
2019-01-27T12:11:15.730Z,184.00
2019-01-27T12:12:15.695Z,184.00
2019-01-27T12:13:15.695Z,184.00
2019-01-27T12:14:15.678Z,184.00
2019-01-27T12:15:15.677Z,184.00
2019-01-27T12:16:15.652Z,184.00
2019-01-27T12:17:15.669Z,188.00
2019-01-27T12:18:15.630Z,196.00
2019-01-27T12:19:15.621Z,188.00
2019-01-27T12:20:15.622Z,188.00
2019-01-27T12:21:15.596Z,196.00
2019-01-27T12:22:15.585Z,192.00
2019-01-27T12:23:15.573Z,192.00
2019-01-27T12:24:15.568Z,192.00
2019-01-27T12:25:15.579Z,200.00
2019-01-27T12:26:15.540Z,196.00
2019-01-27T12:27:15.531Z,200.00
2019-01-27T12:28:15.521Z,200.00
2019-01-27T12:29:15.507Z,80.00
2019-01-27T12:30:15.508Z,84.00
2019-01-27T12:31:15.488Z,88.00
2019-01-27T12:32:15.502Z,92.00
2019-01-27T12:33:15.473Z,96.00
2019-01-27T12:34:15.465Z,96.00
2019-01-27T12:35:15.453Z,96.00
2019-01-27T12:36:15.437Z,100.00
2019-01-27T12:37:15.424Z,92.00
2019-01-27T12:38:15.421Z,88.00
2019-01-27T12:39:15.411Z,88.00
2019-01-27T12:40:15.449Z,88.00
2019-01-27T12:41:15.379Z,84.00
2019-01-27T12:42:15.367Z,80.00
2019-01-27T12:43:15.427Z,80.00
2019-01-27T12:44:15.342Z,80.00
2019-01-27T12:45:15.357Z,80.00
2019-01-27T12:46:15.330Z,72.00
2019-01-27T12:47:15.316Z,68.00
2019-01-27T12:48:15.308Z,68.00
2019-01-27T12:49:15.289Z,68.00
2019-01-27T12:50:15.318Z,68.00
2019-01-27T12:51:15.275Z,68.00
2019-01-27T12:52:15.257Z,68.00
2019-01-27T12:53:15.257Z,64.00
2019-01-27T12:54:15.237Z,64.00
2019-01-27T12:55:15.230Z,68.00
2019-01-27T12:56:15.231Z,64.00
2019-01-27T12:57:15.217Z,64.00
2019-01-27T12:58:15.192Z,64.00
2019-01-27T12:59:15.182Z,64.00
2019-01-27T13:00:15.175Z,68.00
2019-01-27T13:01:15.182Z,72.00
2019-01-27T13:02:15.147Z,76.00
2019-01-27T13:03:15.135Z,76.00
2019-01-27T13:04:15.156Z,76.00
2019-01-27T13:05:15.114Z,76.00
2019-01-27T13:06:15.113Z,76.00